createdAt,value
2023-04-09T00:01:10.850Z,6.85
2023-04-09T00:03:39.009Z,6.35
2023-04-09T00:06:06.450Z,5.40
2023-04-09T00:08:33.276Z,6.07
2023-04-09T00:11:10.142Z,5.97
2023-04-09T00:13:40.771Z,6.32
2023-04-09T00:16:08.710Z,6.15
2023-04-09T00:18:36.145Z,5.70
2023-04-09T00:21:02.988Z,5.35
2023-04-09T00:23:29.860Z,5.07
2023-04-09T00:25:56.850Z,6.00
2023-04-09T00:28:23.705Z,5.25
2023-04-09T00:30:50.797Z,5.03
2023-04-09T00:33:17.602Z,5.10
2023-04-09T00:35:44.393Z,6.05
2023-04-09T00:38:11.416Z,6.35
2023-04-09T00:40:38.225Z,6.30
2023-04-09T00:43:05.609Z,6.05
2023-04-09T00:45:32.636Z,6.13
2023-04-09T00:47:59.891Z,6.07
2023-04-09T00:50:26.801Z,6.47
2023-04-09T00:52:53.678Z,7.00
2023-04-09T00:55:22.111Z,6.90
2023-04-09T00:57:48.943Z,7.07
2023-04-09T01:00:16.173Z,7.93
2023-04-09T01:02:43.698Z,6.45
2023-04-09T01:05:12.763Z,6.60
2023-04-09T01:07:54.121Z,7.00
2023-04-09T01:10:36.439Z,7.13
2023-04-09T01:13:19.962Z,7.05
2023-04-09T01:15:57.159Z,6.97
2023-04-09T01:19:04.469Z,6.75
2023-04-09T01:21:33.736Z,7.25
2023-04-09T01:24:18.933Z,6.75
2023-04-09T01:27:03.112Z,6.43
2023-04-09T01:29:48.843Z,6.22
2023-04-09T01:32:18.732Z,6.18
2023-04-09T01:37:15.320Z,6.70
2023-04-09T01:39:42.755Z,6.30
2023-04-09T01:42:12.126Z,7.28
2023-04-09T01:44:41.442Z,7.28
2023-04-09T01:47:09.727Z,7.25
2023-04-09T01:49:38.973Z,7.47
2023-04-09T01:52:06.188Z,6.65
2023-04-09T01:54:33.025Z,5.85
2023-04-09T01:56:59.888Z,6.70
2023-04-09T01:59:26.759Z,6.60
2023-04-09T02:02:00.093Z,6.55
2023-04-09T02:04:37.083Z,6.20
2023-04-09T02:07:15.369Z,5.45
2023-04-09T02:09:44.460Z,5.95
2023-04-09T02:12:16.611Z,5.72
2023-04-09T02:14:46.978Z,6.28
2023-04-09T02:17:13.967Z,5.38
2023-04-09T02:19:43.079Z,6.07
2023-04-09T02:22:10.917Z,5.73
2023-04-09T02:24:38.174Z,4.57
2023-04-09T02:27:06.183Z,5.88
2023-04-09T02:29:33.591Z,5.70
2023-04-09T02:32:00.778Z,6.47
2023-04-09T02:34:28.162Z,6.25
2023-04-09T02:36:55.342Z,6.43
2023-04-09T02:39:22.128Z,6.10
2023-04-09T02:41:49.194Z,6.75
2023-04-09T02:44:15.992Z,5.53
2023-04-09T02:46:46.604Z,6.32
2023-04-09T02:49:13.440Z,6.15
2023-04-09T02:51:40.203Z,5.40
2023-04-09T02:54:07.074Z,5.78
2023-04-09T02:56:33.959Z,6.90
2023-04-09T02:59:00.792Z,5.80
2023-04-09T03:01:27.794Z,6.47
2023-04-09T03:03:54.740Z,5.97
2023-04-09T03:06:21.681Z,5.38
2023-04-09T03:08:48.626Z,5.13
2023-04-09T03:11:15.839Z,5.60
2023-04-09T03:13:42.665Z,5.35
2023-04-09T03:16:10.697Z,6.00
2023-04-09T03:18:37.651Z,5.82
2023-04-09T03:21:08.878Z,4.78
2023-04-09T03:23:38.641Z,5.88
2023-04-09T03:26:07.611Z,5.90
2023-04-09T03:28:42.106Z,6.03
2023-04-09T03:31:08.917Z,6.45
2023-04-09T03:33:38.059Z,7.05
2023-04-09T03:36:05.310Z,6.65
2023-04-09T03:38:46.557Z,7.43
2023-04-09T03:41:26.402Z,7.07
2023-04-09T03:43:53.964Z,7.03
2023-04-09T03:46:25.410Z,7.20
2023-04-09T03:48:52.500Z,6.57
2023-04-09T03:51:21.151Z,6.32
2023-04-09T03:53:54.057Z,6.55
2023-04-09T03:56:21.152Z,7.25
2023-04-09T03:58:49.711Z,7.68
2023-04-09T04:01:17.563Z,7.70
2023-04-09T04:03:54.091Z,7.20
2023-04-09T04:06:23.765Z,7.15
2023-04-09T04:08:58.672Z,6.85
2023-04-09T04:11:34.154Z,5.90
2023-04-09T04:14:01.025Z,6.05
2023-04-09T04:16:28.408Z,6.03
2023-04-09T04:18:56.025Z,7.03
2023-04-09T04:21:22.853Z,7.10
2023-04-09T04:23:57.239Z,6.97
2023-04-09T04:26:27.457Z,7.40
2023-04-09T04:28:54.384Z,6.18
2023-04-09T04:31:42.360Z,5.70
2023-04-09T04:34:09.251Z,5.40
2023-04-09T04:36:37.787Z,5.20
2023-04-09T04:39:05.460Z,5.72
2023-04-09T04:41:47.344Z,5.40
2023-04-09T04:44:19.700Z,5.30
2023-04-09T04:46:49.006Z,4.90
2023-04-09T04:49:15.903Z,5.97
2023-04-09T04:51:47.099Z,5.22
2023-04-09T04:54:15.946Z,5.15
2023-04-09T04:56:49.896Z,5.85
2023-04-09T04:59:28.558Z,6.10
2023-04-09T05:01:59.716Z,5.93
2023-04-09T05:04:31.040Z,5.78
2023-04-09T05:06:58.783Z,6.20
2023-04-09T05:09:26.249Z,6.75
2023-04-09T05:11:59.832Z,5.82
2023-04-09T05:14:26.803Z,6.32
2023-04-09T05:16:53.762Z,5.70
2023-04-09T05:19:24.925Z,6.00
2023-04-09T05:21:58.090Z,5.15
2023-04-09T05:24:24.989Z,5.47
2023-04-09T05:26:51.798Z,5.20
2023-04-09T05:29:18.659Z,5.20
2023-04-09T05:31:45.635Z,4.72
2023-04-09T05:34:22.494Z,5.65
2023-04-09T05:36:53.467Z,5.53
2023-04-09T05:39:22.577Z,6.00
2023-04-09T05:41:49.524Z,5.57
2023-04-09T05:44:36.891Z,5.80
2023-04-09T05:47:11.717Z,5.22
2023-04-09T05:49:55.974Z,5.03
2023-04-09T05:52:22.902Z,5.18
2023-04-09T05:54:51.565Z,5.72
2023-04-09T05:57:23.282Z,6.00
2023-04-09T05:59:57.020Z,5.88
2023-04-09T06:02:25.250Z,6.40
2023-04-09T06:04:54.307Z,7.15
2023-04-09T06:07:21.325Z,6.38
2023-04-09T06:09:48.259Z,6.15
2023-04-09T06:12:15.766Z,6.05
2023-04-09T06:14:42.556Z,6.07
2023-04-09T06:17:09.362Z,6.90
2023-04-09T06:19:36.197Z,5.40
2023-04-09T06:22:03.009Z,6.93
2023-04-09T06:24:32.683Z,6.95
2023-04-09T06:26:59.855Z,5.55
2023-04-09T06:29:27.161Z,6.78
2023-04-09T06:31:54.098Z,6.00
2023-04-09T06:34:21.178Z,8.20
2023-04-09T06:36:48.382Z,9.07
2023-04-09T06:39:15.255Z,9.82
2023-04-09T06:41:42.063Z,7.95
2023-04-09T06:44:21.696Z,7.78
2023-04-09T06:46:48.598Z,8.10
2023-04-09T06:49:15.771Z,7.80
2023-04-09T06:51:42.747Z,8.82
2023-04-09T06:54:09.581Z,8.13
2023-04-09T06:56:36.405Z,9.30
2023-04-09T06:59:03.647Z,9.57
2023-04-09T07:01:30.639Z,9.85
2023-04-09T07:03:57.801Z,9.98
2023-04-09T07:06:24.940Z,11.13
2023-04-09T07:08:51.956Z,10.20
2023-04-09T07:11:19.005Z,10.07
2023-04-09T07:13:45.768Z,9.98
2023-04-09T07:16:12.541Z,9.52
2023-04-09T07:18:39.584Z,9.38
2023-04-09T07:21:06.514Z,10.18
2023-04-09T07:23:36.604Z,10.43
2023-04-09T07:26:06.712Z,10.43
2023-04-09T07:28:33.980Z,10.98
2023-04-09T07:31:04.533Z,11.27
2023-04-09T07:33:31.420Z,10.60
2023-04-09T07:35:58.288Z,10.40
2023-04-09T07:38:25.114Z,10.75
2023-04-09T07:40:52.029Z,10.80
2023-04-09T07:43:19.767Z,10.48
2023-04-09T07:45:51.550Z,10.70
2023-04-09T07:48:18.420Z,10.90
2023-04-09T07:50:45.192Z,11.60
2023-04-09T07:53:12.347Z,9.93
2023-04-09T07:55:40.214Z,10.70
2023-04-09T07:58:07.377Z,10.18
2023-04-09T08:00:34.269Z,10.70
2023-04-09T08:03:02.129Z,10.70
2023-04-09T08:05:29.509Z,10.60
2023-04-09T08:07:56.387Z,10.10
2023-04-09T08:10:23.394Z,10.50
2023-04-09T08:12:50.203Z,9.93
2023-04-09T08:15:17.047Z,9.38
2023-04-09T08:17:43.854Z,8.48
2023-04-09T08:20:11.618Z,9.50
2023-04-09T08:22:38.397Z,8.98
2023-04-09T08:25:05.830Z,9.05
2023-04-09T08:27:33.904Z,8.63
2023-04-09T08:30:00.690Z,9.20
2023-04-09T08:32:27.936Z,8.10
2023-04-09T08:34:54.720Z,7.65
2023-04-09T08:37:21.486Z,7.55
2023-04-09T08:39:48.326Z,5.82
2023-04-09T08:42:16.158Z,4.38
2023-04-09T08:44:43.698Z,4.43
2023-04-09T08:47:11.694Z,4.35
2023-04-09T08:49:41.872Z,4.72
2023-04-09T08:52:08.881Z,5.95
2023-04-09T08:54:35.831Z,6.43
2023-04-09T08:57:06.415Z,6.78
2023-04-09T08:59:36.983Z,6.50
2023-04-09T09:02:11.728Z,6.10
2023-04-09T09:04:50.302Z,6.25
2023-04-09T09:07:17.575Z,6.18
2023-04-09T09:09:56.226Z,6.18
2023-04-09T09:12:38.998Z,6.13
2023-04-09T09:15:27.116Z,6.05
2023-04-09T09:17:56.954Z,5.60
2023-04-09T09:20:25.001Z,5.75
2023-04-09T09:22:55.629Z,4.97
2023-04-09T09:25:24.649Z,4.53
2023-04-09T09:27:52.826Z,3.70
2023-04-09T09:30:25.645Z,3.72
2023-04-09T09:33:07.531Z,3.15
2023-04-09T09:35:54.572Z,3.90
2023-04-09T09:38:21.583Z,3.25
2023-04-09T09:40:49.510Z,2.63
2023-04-09T09:43:16.440Z,3.13
2023-04-09T09:45:44.325Z,3.42
2023-04-09T09:48:12.733Z,3.20
2023-04-09T09:50:43.752Z,3.25
2023-04-09T09:53:11.825Z,3.47
2023-04-09T09:55:47.919Z,3.50
2023-04-09T09:58:25.204Z,3.25
2023-04-09T10:00:53.221Z,3.35
2023-04-09T10:03:29.276Z,3.60
2023-04-09T10:05:57.453Z,4.00
2023-04-09T10:08:24.529Z,3.92
2023-04-09T10:10:52.934Z,3.78
2023-04-09T10:13:29.508Z,3.67
2023-04-09T10:15:57.446Z,3.70
2023-04-09T10:18:24.734Z,3.75
2023-04-09T10:20:59.618Z,3.63
2023-04-09T10:23:32.990Z,3.65
2023-04-09T10:25:59.865Z,3.45
2023-04-09T10:28:27.178Z,3.03
2023-04-09T10:30:54.851Z,3.35
2023-04-09T10:33:27.924Z,3.33
2023-04-09T10:36:00.599Z,3.22
2023-04-09T10:38:42.717Z,2.80
2023-04-09T10:41:29.669Z,2.70
2023-04-09T10:43:57.990Z,2.50
2023-04-09T10:46:38.648Z,2.70
2023-04-09T10:49:18.942Z,2.97
2023-04-09T10:52:01.716Z,2.30
2023-04-09T10:54:34.391Z,2.15
2023-04-09T10:57:18.983Z,2.20
2023-04-09T10:59:52.135Z,2.50
2023-04-09T11:02:40.587Z,2.60
2023-04-09T11:05:20.693Z,2.45
2023-04-09T11:08:05.292Z,2.63
2023-04-09T11:10:36.877Z,2.40
2023-04-09T11:13:04.309Z,2.60
2023-04-09T11:15:34.220Z,2.35
2023-04-09T11:20:31.002Z,2.58
2023-04-09T11:22:59.978Z,2.70
2023-04-09T11:25:30.485Z,3.00
2023-04-09T11:27:57.538Z,2.85
2023-04-09T11:30:24.389Z,2.70
2023-04-09T11:32:51.664Z,2.92
2023-04-09T11:35:21.896Z,2.83
2023-04-09T11:37:50.215Z,3.42
2023-04-09T11:40:26.360Z,3.92
2023-04-09T11:42:54.496Z,3.25
2023-04-09T11:45:24.900Z,3.33
2023-04-09T11:47:52.112Z,2.97
2023-04-09T11:50:19.944Z,3.03
2023-04-09T11:52:47.330Z,3.15
2023-04-09T11:55:28.086Z,3.08
2023-04-09T11:58:00.964Z,3.20
2023-04-09T12:00:29.047Z,3.58
2023-04-09T12:03:04.944Z,3.30
2023-04-09T12:05:35.102Z,3.00
2023-04-09T12:08:05.398Z,3.13
2023-04-09T12:10:36.045Z,3.00
2023-04-09T12:13:06.779Z,2.95
2023-04-09T12:15:38.981Z,2.95
2023-04-09T12:18:09.986Z,2.97
2023-04-09T12:20:39.644Z,2.75
2023-04-09T12:23:08.008Z,2.85
2023-04-09T12:25:38.203Z,3.15
2023-04-09T12:28:07.691Z,2.90
2023-04-09T12:30:35.573Z,3.15
2023-04-09T12:33:04.261Z,2.85
2023-04-09T12:35:31.750Z,2.80
2023-04-09T12:38:01.732Z,2.90
2023-04-09T12:42:55.958Z,3.10
2023-04-09T12:45:22.984Z,3.35
2023-04-09T12:47:50.166Z,3.40
2023-04-09T12:50:17.113Z,3.13
2023-04-09T12:52:44.901Z,2.90
2023-04-09T12:55:13.098Z,2.83
2023-04-09T12:57:43.419Z,2.63
2023-04-09T13:00:11.131Z,3.10
2023-04-09T13:02:38.237Z,3.08
2023-04-09T13:05:05.534Z,3.40
2023-04-09T13:07:32.373Z,3.20
2023-04-09T13:09:59.268Z,3.00
2023-04-09T13:12:26.947Z,2.92
2023-04-09T13:14:54.801Z,2.42
2023-04-09T13:17:22.298Z,2.90
2023-04-09T13:19:51.207Z,2.92
2023-04-09T13:22:18.990Z,3.05
2023-04-09T13:24:46.022Z,2.60
2023-04-09T13:27:12.901Z,3.30
2023-04-09T13:29:40.047Z,3.38
2023-04-09T13:32:07.399Z,2.95
2023-04-09T13:34:35.271Z,2.58
2023-04-09T13:37:05.561Z,3.33
2023-04-09T13:39:32.880Z,3.28
2023-04-09T13:42:07.375Z,2.53
2023-04-09T13:44:36.998Z,2.60
2023-04-09T13:47:03.868Z,2.80
2023-04-09T13:49:30.832Z,3.00
2023-04-09T13:51:58.150Z,2.88
2023-04-09T13:54:24.982Z,3.08
2023-04-09T13:56:51.888Z,3.40
2023-04-09T13:59:18.794Z,2.80
2023-04-09T14:01:45.675Z,3.22
2023-04-09T14:04:12.693Z,2.95
2023-04-09T14:06:39.585Z,3.10
2023-04-09T14:09:06.430Z,2.70
2023-04-09T14:11:33.228Z,2.40
2023-04-09T14:14:00.134Z,2.45
2023-04-09T14:16:28.076Z,2.83
2023-04-09T14:18:55.200Z,2.60
2023-04-09T14:21:22.384Z,2.38
2023-04-09T14:23:49.218Z,2.90
2023-04-09T14:26:20.337Z,2.58
2023-04-09T14:28:48.273Z,3.03
2023-04-09T14:31:15.372Z,3.20
2023-04-09T14:33:42.254Z,2.90
2023-04-09T14:36:09.232Z,2.83
2023-04-09T14:38:36.812Z,3.28
2023-04-09T14:41:03.697Z,3.10
2023-04-09T14:43:30.520Z,2.97
2023-04-09T14:45:57.298Z,2.70
2023-04-09T14:48:24.128Z,2.70
2023-04-09T14:50:53.494Z,2.88
2023-04-09T14:53:20.750Z,2.80
2023-04-09T14:55:47.579Z,2.65
2023-04-09T14:58:14.469Z,2.65
2023-04-09T15:00:41.291Z,2.70
2023-04-09T15:03:08.447Z,2.75
2023-04-09T15:05:35.631Z,2.72
2023-04-09T15:08:02.508Z,2.70
2023-04-09T15:10:29.283Z,3.13
2023-04-09T15:12:56.076Z,2.75
2023-04-09T15:15:23.053Z,2.53
2023-04-09T15:17:49.944Z,2.65
2023-04-09T15:20:16.914Z,2.47
2023-04-09T15:22:43.731Z,2.10
2023-04-09T15:25:12.509Z,2.35
2023-04-09T15:27:41.236Z,2.90
2023-04-09T15:30:08.681Z,2.53
2023-04-09T15:32:35.614Z,2.55
2023-04-09T15:35:02.549Z,2.58
2023-04-09T15:37:29.403Z,2.22
2023-04-09T15:39:56.472Z,2.08
2023-04-09T15:42:23.369Z,2.67
2023-04-09T15:44:50.811Z,3.00
2023-04-09T15:47:17.958Z,2.90
2023-04-09T15:49:44.839Z,2.92
2023-04-09T15:52:11.678Z,2.97
2023-04-09T15:54:38.606Z,2.55
2023-04-09T15:57:05.422Z,2.65
2023-04-09T15:59:32.249Z,3.10
2023-04-09T16:01:59.470Z,2.90
2023-04-09T16:04:27.525Z,2.85
2023-04-09T16:06:56.301Z,3.38
2023-04-09T16:09:23.786Z,3.17
2023-04-09T16:11:51.011Z,2.75
2023-04-09T16:14:17.992Z,3.10
2023-04-09T16:16:49.432Z,3.28
2023-04-09T16:19:17.663Z,3.42
2023-04-09T16:21:45.316Z,2.67
2023-04-09T16:24:12.687Z,2.80
2023-04-09T16:26:44.660Z,2.97
2023-04-09T16:29:12.668Z,2.85
2023-04-09T16:31:42.082Z,2.88
2023-04-09T16:34:08.995Z,3.67
2023-04-09T16:36:37.016Z,2.92
2023-04-09T16:39:04.947Z,2.92
2023-04-09T16:41:32.963Z,3.30
2023-04-09T16:44:00.669Z,2.95
2023-04-09T16:46:27.610Z,2.65
2023-04-09T16:48:54.655Z,2.83
2023-04-09T16:51:21.644Z,3.00
2023-04-09T16:53:48.510Z,3.05
2023-04-09T16:56:16.629Z,3.20
2023-04-09T16:58:43.887Z,3.00
2023-04-09T17:01:10.765Z,2.97
2023-04-09T17:03:37.922Z,3.38
2023-04-09T17:06:05.056Z,3.30
2023-04-09T17:08:32.078Z,2.95
2023-04-09T17:11:02.145Z,2.97
2023-04-09T17:13:31.598Z,3.03
2023-04-09T17:15:58.583Z,3.05
2023-04-09T17:18:25.442Z,3.28
2023-04-09T17:20:52.578Z,3.17
2023-04-09T17:23:19.441Z,5.25
2023-04-09T17:25:46.990Z,4.35
2023-04-09T17:28:13.882Z,3.47
2023-04-09T17:30:41.449Z,2.95
2023-04-09T17:33:08.674Z,3.20
2023-04-09T17:35:35.458Z,3.00
2023-04-09T17:38:02.371Z,3.20
2023-04-09T17:40:29.238Z,2.90
2023-04-09T17:42:56.310Z,2.85
2023-04-09T17:45:23.137Z,3.17
2023-04-09T17:47:51.025Z,3.53
2023-04-09T17:50:18.286Z,2.90
2023-04-09T17:52:45.177Z,3.10
2023-04-09T17:55:12.846Z,2.85
2023-04-09T17:57:40.820Z,3.00
2023-04-09T18:00:08.739Z,2.75
2023-04-09T18:02:46.082Z,3.10
2023-04-09T18:05:13.339Z,3.00
2023-04-09T18:07:40.251Z,3.20
2023-04-09T18:10:07.670Z,3.22
2023-04-09T18:12:34.425Z,3.15
2023-04-09T18:15:01.345Z,3.40
2023-04-09T18:17:28.353Z,3.20
2023-04-09T18:19:57.976Z,3.10
2023-04-09T18:22:26.427Z,3.25
2023-04-09T18:24:53.997Z,3.60
2023-04-09T18:27:21.436Z,3.03
2023-04-09T18:29:50.902Z,3.40
2023-04-09T18:32:19.374Z,3.47
2023-04-09T18:34:47.065Z,3.25
2023-04-09T18:37:15.278Z,3.25
2023-04-09T18:39:42.108Z,2.58
2023-04-09T18:42:08.936Z,3.40
2023-04-09T18:44:38.534Z,3.17
2023-04-09T18:47:06.591Z,3.10
2023-04-09T18:49:33.749Z,3.10
2023-04-09T18:52:00.735Z,3.08
2023-04-09T18:54:27.899Z,3.50
2023-04-09T18:56:54.737Z,3.53
2023-04-09T18:59:21.816Z,4.00
2023-04-09T19:01:48.822Z,5.47
2023-04-09T19:04:15.907Z,3.88
2023-04-09T19:06:46.105Z,3.67
2023-04-09T19:09:12.929Z,3.75
2023-04-09T19:11:39.757Z,3.65
2023-04-09T19:14:06.628Z,3.58
2023-04-09T19:16:33.580Z,3.00
2023-04-09T19:19:00.653Z,3.03
2023-04-09T19:21:31.606Z,3.08
2023-04-09T19:24:00.053Z,3.05
2023-04-09T19:26:26.982Z,3.13
2023-04-09T19:28:53.966Z,3.20
2023-04-09T19:31:21.034Z,2.88
2023-04-09T19:33:47.915Z,3.50
2023-04-09T19:36:14.729Z,3.42
2023-04-09T19:38:41.498Z,3.00
2023-04-09T19:41:10.665Z,3.85
2023-04-09T19:43:39.175Z,4.10
2023-04-09T19:46:08.336Z,3.50
2023-04-09T19:48:37.911Z,3.80
2023-04-09T19:51:04.954Z,3.40
2023-04-09T19:53:32.730Z,3.63
2023-04-09T19:55:59.749Z,4.25
2023-04-09T19:58:27.837Z,3.53
2023-04-09T20:00:54.831Z,4.20
2023-04-09T20:03:21.972Z,4.18
2023-04-09T20:05:51.097Z,4.60
2023-04-09T20:08:17.965Z,5.90
2023-04-09T20:10:46.647Z,6.32
2023-04-09T20:13:13.833Z,6.10
2023-04-09T20:15:40.638Z,6.90
2023-04-09T20:18:07.945Z,14.35
2023-04-09T20:20:34.911Z,18.77
2023-04-09T20:23:01.809Z,18.58
2023-04-09T20:25:34.249Z,8.63
2023-04-09T20:28:02.411Z,6.03
2023-04-09T20:30:33.619Z,5.55
2023-04-09T20:33:01.125Z,5.30
2023-04-09T20:35:28.067Z,4.63
2023-04-09T20:37:55.100Z,4.80
2023-04-09T20:40:22.230Z,4.60
2023-04-09T20:42:49.198Z,4.95
2023-04-09T20:45:16.137Z,4.63
2023-04-09T20:47:43.098Z,4.72
2023-04-09T20:50:10.546Z,4.55
2023-04-09T20:52:38.155Z,5.32
2023-04-09T20:55:06.303Z,5.32
2023-04-09T20:57:33.743Z,6.47
2023-04-09T21:00:00.950Z,6.55
2023-04-09T21:02:27.884Z,6.50
2023-04-09T21:04:54.844Z,7.22
2023-04-09T21:07:21.701Z,6.47
2023-04-09T21:09:48.927Z,6.75
2023-04-09T21:12:15.750Z,7.18
2023-04-09T21:14:42.598Z,7.65
2023-04-09T21:17:09.763Z,7.00
2023-04-09T21:19:36.631Z,7.47
2023-04-09T21:22:03.653Z,6.82
2023-04-09T21:24:31.304Z,7.55
2023-04-09T21:26:58.763Z,7.72
2023-04-09T21:29:25.569Z,6.72
2023-04-09T21:31:52.372Z,7.10
2023-04-09T21:34:19.303Z,6.95
2023-04-09T21:36:46.510Z,6.47
2023-04-09T21:39:13.382Z,5.13
2023-04-09T21:41:40.166Z,5.47
2023-04-09T21:44:09.773Z,5.43
2023-04-09T21:46:37.519Z,5.40
2023-04-09T21:49:04.572Z,5.63
2023-04-09T21:51:31.986Z,6.25
2023-04-09T21:54:05.298Z,6.90
2023-04-09T21:56:35.923Z,7.20
2023-04-09T21:59:03.748Z,7.80
2023-04-09T22:01:31.773Z,6.50
2023-04-09T22:03:59.504Z,6.78
2023-04-09T22:06:27.429Z,5.85
2023-04-09T22:08:56.786Z,5.85
2023-04-09T22:11:27.555Z,6.25
2023-04-09T22:13:56.673Z,6.07
2023-04-09T22:16:24.212Z,6.30
2023-04-09T22:18:51.473Z,6.72
2023-04-09T22:21:18.604Z,6.40
2023-04-09T22:23:45.652Z,6.43
2023-04-09T22:26:12.464Z,6.22
2023-04-09T22:28:39.428Z,6.03
2023-04-09T22:31:06.570Z,6.10
2023-04-09T22:33:33.503Z,6.15
2023-04-09T22:36:00.396Z,5.70
2023-04-09T22:38:27.530Z,6.18
2023-04-09T22:40:54.405Z,5.47
2023-04-09T22:43:21.201Z,6.32
2023-04-09T22:45:52.768Z,6.00
2023-04-09T22:48:20.982Z,6.70
2023-04-09T22:50:48.268Z,6.07
2023-04-09T22:53:18.664Z,5.93
2023-04-09T22:55:54.498Z,6.03
2023-04-09T22:58:21.429Z,6.78
2023-04-09T23:00:50.378Z,6.45
2023-04-09T23:03:17.683Z,7.43
2023-04-09T23:05:44.899Z,6.25
2023-04-09T23:08:12.021Z,6.80
2023-04-09T23:10:38.864Z,6.97
2023-04-09T23:13:06.016Z,6.75
2023-04-09T23:15:32.850Z,6.32
2023-04-09T23:17:59.726Z,6.68
2023-04-09T23:20:26.600Z,6.82
2023-04-09T23:22:53.460Z,6.90
2023-04-09T23:25:21.742Z,6.80
2023-04-09T23:27:48.634Z,7.38
2023-04-09T23:30:18.550Z,6.28
2023-04-09T23:35:12.622Z,5.85
2023-04-09T23:37:40.930Z,6.53
2023-04-09T23:40:08.808Z,6.70
2023-04-09T23:42:35.803Z,6.28
2023-04-09T23:45:05.655Z,7.13
2023-04-09T23:47:34.689Z,7.03
2023-04-09T23:50:05.709Z,7.50
2023-04-09T23:52:37.531Z,7.40
2023-04-09T23:55:08.482Z,6.93
2023-04-09T23:57:35.439Z,7.28
